Hatteras, NC (27943)

7:47 PM EST on March 04, 2015 (GMT -0500)
APRSWXNET Buxton NC US | Change Station
CLOSE
Current Station
Personal Weather Station
Location: Buxton, NC
Elevation: 41 ft
Nearby Weather Stations

Elev 41 ft 35.25 °N, 75.53 °W | Updated 28 minutes ago

Fog
Fog
60 °F
Feels Like 60 °F
N
9
Wind Variable Wind from SW
Gusts 0.0 mph

Today
High -- | Low -- °F
--% Chance of Precip.
Yesterday
High -- | Low -- °F
Precip. -- in
6:28 AM 6:00 PM
Full, 100% visible
Pressure 29.98 in
Visibility 5.0 miles
Clouds Clear
Dew Point 58 °F
Humidity 94%
Rainfall -999.00 in
Snow Depth Not available.
UV 0 out of 12
Pollen 8.20 out of 12
Air Quality Not available.
Flu Activity Not available.
METAR KHSE 042351Z AUTO 24010G17KT 5SM BR CLR 13/13 A2998 RMK AO2 SLP150 T01330133 10139 20122 53002 TSNO

More Conditions Fewer Conditions

Pressure 29.98 in
Visibility 5.0 miles
Clouds Clear
Dew Point 58 °F
Humidity 94%
Rainfall -999.00 in
Snow Depth Not available.
UV 0 out of 12
Pollen 8.20 out of 12
Air Quality Not available.
Flu Activity Not available.
METAR KHSE 042351Z AUTO 24010G17KT 5SM BR CLR 13/13 A2998 RMK AO2 SLP150 T01330133 10139 20122 53002 TSNO

More Conditions Fewer Conditions

10-Day Weather Forecast

Almanac

Astronomy

Mar. 04, 2015 Rise Set
Actual Time
Civil Twilight
Nautical Twilight
Astronomical Twilight
Moon
Length of Visible Light
Length of Day
Tomorrow will be .
, % of the Moon is Illuminated

Today's Extremes

State Highs State Lows

Community

WunderPhotos

Upload Photos

1,802,608 photos uploaded!

WunderBlogs® & News

Nearby

Air Quality

  Air Quality AQ Index Pollutant
Not available.

Snow Depth

Station Depth Elevation

Earthquake Activity

City Distance Mag. Time & Date
Minimum magnitude displayed is 2.5.

Coastal Water Temperatures

Place Temperature

Nearby Weather Stations